Ana Sayfa
METAR-TAF:

METAR-TAF

Havaalanları :

São Tomé, São Tomé ve Príncipe

Enlem: 00-23N, Boylam: 006-43E, yükseklik: 8 m

Güncel hava durumu gözlemi

Rapor saat 20:00 UTC de 1 saat ve 54 dakika önce yapıldı.
Rüzgar güneydan 10 kt
Sıcaklık 29°C
Nem 89%
Basınç 1010 hPa
Görüş mesafesi 10 km veya daha fazla
2000 ft yükseklikte az bulutlu, Kümülonimbus.
4000 ft yükseklikte parçalı bulutlu

METAR: FPST 242000Z 18010KT 9999 FEW020CB SCT040 29/27 Q1010 NOSIG

Saat: 21:54 (21:54 UTC)


TAF: eksik

4.000'den fazla havaalanı için hava durumu gözlemleri ve tahminleri (METAR ve TAF raporları).

Kullanılabilir istasyonlar harita üzerinde sarı ve kırmızı noktalarla gösterilir.

İstasyonun adını görmek için fareyi noktanın üzerinde gezdirin.

Sonrasında hava gözlem ve tahminlerini görmek için tıklayın.

Haritayı değiştirmek için: yaklaştırmak için siyah artı işaretli yeşil düğmeye ve uzaklaştırmak için de eksi işaretli düğmeye hızla tıklayın; bitişik haritalar için yeşil okları kullanın.


METAR-TAF: